sensor_id;sensor_type;location;lat;lon;timestamp;pressure;altitude;pressure_sealevel;temperature;humidity
60061;BME280;45933;51.336;12.612;2023-06-19T00:00:50;99611.16;;;22.66;39.86
60061;BME280;45933;51.336;12.612;2023-06-19T00:03:15;99613.25;;;22.61;39.96
60061;BME280;45933;51.336;12.612;2023-06-19T00:05:40;99611.81;;;22.56;40.04
60061;BME280;45933;51.336;12.612;2023-06-19T00:08:06;99619.16;;;22.52;40.21
60061;BME280;45933;51.336;12.612;2023-06-19T00:10:31;99613.44;;;22.44;40.46
60061;BME280;45933;51.336;12.612;2023-06-19T00:12:57;99619.88;;;22.40;40.88
60061;BME280;45933;51.336;12.612;2023-06-19T00:15:22;99612.19;;;22.35;40.86
60061;BME280;45933;51.336;12.612;2023-06-19T00:17:48;99614.22;;;22.32;40.88
60061;BME280;45933;51.336;12.612;2023-06-19T00:20:13;99610.03;;;22.28;41.43
60061;BME280;45933;51.336;12.612;2023-06-19T00:22:39;99609.56;;;22.21;41.30
60061;BME280;45933;51.336;12.612;2023-06-19T00:25:04;99613.25;;;22.18;41.55
60061;BME280;45933;51.336;12.612;2023-06-19T00:27:29;99615.31;;;22.13;41.13
60061;BME280;45933;51.336;12.612;2023-06-19T00:29:55;99616.63;;;22.06;41.66
60061;BME280;45933;51.336;12.612;2023-06-19T00:32:22;99615.09;;;22.02;41.73
60061;BME280;45933;51.336;12.612;2023-06-19T00:34:47;99618.78;;;22.00;41.83
60061;BME280;45933;51.336;12.612;2023-06-19T00:37:13;99618.13;;;21.96;41.98
60061;BME280;45933;51.336;12.612;2023-06-19T00:39:40;99612.97;;;21.93;41.81
60061;BME280;45933;51.336;12.612;2023-06-19T00:42:06;99605.97;;;21.92;42.01
60061;BME280;45933;51.336;12.612;2023-06-19T00:44:31;99609.56;;;21.91;42.02
60061;BME280;45933;51.336;12.612;2023-06-19T00:46:58;99612.22;;;21.91;42.27
60061;BME280;45933;51.336;12.612;2023-06-19T00:49:25;99606.91;;;21.91;42.39
60061;BME280;45933;51.336;12.612;2023-06-19T00:51:51;99612.31;;;21.89;42.38
60061;BME280;45933;51.336;12.612;2023-06-19T00:54:16;99601.63;;;21.91;42.14
60061;BME280;45933;51.336;12.612;2023-06-19T00:56:42;99601.63;;;21.91;41.99
60061;BME280;45933;51.336;12.612;2023-06-19T00:59:15;99591.41;;;21.99;41.95
60061;BME280;45933;51.336;12.612;2023-06-19T01:01:42;99592.53;;;21.95;42.67
60061;BME280;45933;51.336;12.612;2023-06-19T01:04:07;99588.06;;;21.96;42.16
60061;BME280;45933;51.336;12.612;2023-06-19T01:06:50;99582.28;;;22.03;41.93
60061;BME280;45933;51.336;12.612;2023-06-19T01:09:18;99577.94;;;22.02;41.82
60061;BME280;45933;51.336;12.612;2023-06-19T01:11:55;99578.59;;;22.06;41.53
60061;BME280;45933;51.336;12.612;2023-06-19T01:14:26;99572.44;;;22.05;41.93
60061;BME280;45933;51.336;12.612;2023-06-19T01:16:53;99575.28;;;22.02;41.97
60061;BME280;45933;51.336;12.612;2023-06-19T01:19:20;99565.44;;;22.04;41.78
60061;BME280;45933;51.336;12.612;2023-06-19T01:21:47;99569.22;;;22.00;42.16
60061;BME280;45933;51.336;12.612;2023-06-19T01:24:13;99560.31;;;22.01;41.98
60061;BME280;45933;51.336;12.612;2023-06-19T01:26:38;99559.56;;;21.99;42.39
60061;BME280;45933;51.336;12.612;2023-06-19T01:29:04;99562.13;;;22.01;42.04
60061;BME280;45933;51.336;12.612;2023-06-19T01:31:59;99555.06;;;22.15;41.21
60061;BME280;45933;51.336;12.612;2023-06-19T01:34:29;99562.69;;;22.06;42.22
60061;BME280;45933;51.336;12.612;2023-06-19T01:36:55;99559.19;;;22.05;42.29
60061;BME280;45933;51.336;12.612;2023-06-19T01:39:22;99557.38;;;22.06;42.13
60061;BME280;45933;51.336;12.612;2023-06-19T01:41:48;99560.13;;;22.04;42.14
60061;BME280;45933;51.336;12.612;2023-06-19T01:44:14;99559.25;;;22.04;42.05
60061;BME280;45933;51.336;12.612;2023-06-19T01:46:40;99555.69;;;22.05;42.17
60061;BME280;45933;51.336;12.612;2023-06-19T01:49:07;99556.53;;;22.05;42.00
60061;BME280;45933;51.336;12.612;2023-06-19T01:51:33;99543.25;;;22.05;42.22
60061;BME280;45933;51.336;12.612;2023-06-19T01:53:58;99544.00;;;22.07;42.25
60061;BME280;45933;51.336;12.612;2023-06-19T01:56:24;99537.84;;;22.07;42.13
60061;BME280;45933;51.336;12.612;2023-06-19T01:58:49;99539.53;;;22.08;42.15
60061;BME280;45933;51.336;12.612;2023-06-19T02:01:14;99528.94;;;22.08;42.36
60061;BME280;45933;51.336;12.612;2023-06-19T02:03:40;99531.59;;;22.08;42.31
60061;BME280;45933;51.336;12.612;2023-06-19T02:06:05;99532.53;;;22.07;41.99
60061;BME280;45933;51.336;12.612;2023-06-19T02:08:30;99534.34;;;22.06;42.03
60061;BME280;45933;51.336;12.612;2023-06-19T02:10:55;99528.19;;;22.06;42.68
60061;BME280;45933;51.336;12.612;2023-06-19T02:13:21;99527.34;;;22.05;42.11
60061;BME280;45933;51.336;12.612;2023-06-19T02:15:47;99525.63;;;22.04;42.32
60061;BME280;45933;51.336;12.612;2023-06-19T02:18:12;99527.34;;;22.05;42.32
60061;BME280;45933;51.336;12.612;2023-06-19T02:20:37;99525.63;;;22.04;41.99
60061;BME280;45933;51.336;12.612;2023-06-19T02:23:04;99516.91;;;22.02;42.39
60061;BME280;45933;51.336;12.612;2023-06-19T02:25:29;99521.34;;;22.02;42.43
60061;BME280;45933;51.336;12.612;2023-06-19T02:27:54;99524.97;;;22.01;42.24
60061;BME280;45933;51.336;12.612;2023-06-19T02:30:19;99525.97;;;21.98;42.06
60061;BME280;45933;51.336;12.612;2023-06-19T02:32:45;99520.09;;;21.93;42.14
60061;BME280;45933;51.336;12.612;2023-06-19T02:35:10;99530.81;;;21.91;42.12
60061;BME280;45933;51.336;12.612;2023-06-19T02:37:36;99528.38;;;21.88;42.24
60061;BME280;45933;51.336;12.612;2023-06-19T02:40:06;99533.09;;;21.83;42.58
60061;BME280;45933;51.336;12.612;2023-06-19T02:42:32;99533.19;;;21.82;42.47
60061;BME280;45933;51.336;12.612;2023-06-19T02:44:57;99528.91;;;21.79;42.25
60061;BME280;45933;51.336;12.612;2023-06-19T02:47:28;99535.34;;;21.75;42.73
60061;BME280;45933;51.336;12.612;2023-06-19T02:49:54;99534.66;;;21.72;42.73
60061;BME280;45933;51.336;12.612;2023-06-19T02:52:19;99537.44;;;21.70;43.00
60061;BME280;45933;51.336;12.612;2023-06-19T02:54:44;99535.91;;;21.66;43.07
60061;BME280;45933;51.336;12.612;2023-06-19T02:57:10;99530.78;;;21.63;43.42
60061;BME280;45933;51.336;12.612;2023-06-19T02:59:35;99532.50;;;21.64;43.08
60061;BME280;45933;51.336;12.612;2023-06-19T03:02:00;99529.16;;;21.60;43.51
60061;BME280;45933;51.336;12.612;2023-06-19T03:04:25;99522.25;;;21.58;43.47
60061;BME280;45933;51.336;12.612;2023-06-19T03:06:51;99517.13;;;21.55;43.65
60061;BME280;45933;51.336;12.612;2023-06-19T03:09:16;99520.81;;;21.52;43.87
60061;BME280;45933;51.336;12.612;2023-06-19T03:11:41;99517.41;;;21.50;43.65
60061;BME280;45933;51.336;12.612;2023-06-19T03:14:07;99520.31;;;21.46;43.82
60061;BME280;45933;51.336;12.612;2023-06-19T03:16:33;99518.72;;;21.43;43.98
60061;BME280;45933;51.336;12.612;2023-06-19T03:18:59;99514.53;;;21.39;43.93
60061;BME280;45933;51.336;12.612;2023-06-19T03:21:24;99519.09;;;21.37;44.04
60061;BME280;45933;51.336;12.612;2023-06-19T03:23:49;99513.84;;;21.35;43.96
60061;BME280;45933;51.336;12.612;2023-06-19T03:26:15;99527.31;;;21.32;44.14
60061;BME280;45933;51.336;12.612;2023-06-19T03:28:40;99533.63;;;21.30;43.95
60061;BME280;45933;51.336;12.612;2023-06-19T03:31:05;99532.09;;;21.26;44.12
60061;BME280;45933;51.336;12.612;2023-06-19T03:33:31;99535.59;;;21.26;44.18
60061;BME280;45933;51.336;12.612;2023-06-19T03:35:56;99528.59;;;21.25;44.07
60061;BME280;45933;51.336;12.612;2023-06-19T03:38:22;99531.22;;;21.25;44.37
60061;BME280;45933;51.336;12.612;2023-06-19T03:40:47;99522.41;;;21.25;44.46
60061;BME280;45933;51.336;12.612;2023-06-19T03:43:12;99525.16;;;21.23;44.52
60061;BME280;45933;51.336;12.612;2023-06-19T03:45:37;99524.28;;;21.23;44.75
60061;BME280;45933;51.336;12.612;2023-06-19T03:48:03;99520.69;;;21.24;44.60
60061;BME280;45933;51.336;12.612;2023-06-19T03:50:29;99515.50;;;21.22;44.83
60061;BME280;45933;51.336;12.612;2023-06-19T03:52:54;99521.75;;;21.21;44.95
60061;BME280;45933;51.336;12.612;2023-06-19T03:55:20;99527.03;;;21.21;44.67
60061;BME280;45933;51.336;12.612;2023-06-19T03:57:45;99523.34;;;21.24;44.89
60061;BME280;45933;51.336;12.612;2023-06-19T04:00:10;99526.94;;;21.23;44.98
60061;BME280;45933;51.336;12.612;2023-06-19T04:02:38;99538.59;;;21.20;45.42
60061;BME280;45933;51.336;12.612;2023-06-19T04:05:04;99542.09;;;21.21;45.09
60061;BME280;45933;51.336;12.612;2023-06-19T04:07:29;99535.75;;;21.23;44.99
60061;BME280;45933;51.336;12.612;2023-06-19T04:09:56;99545.34;;;21.26;45.13
60061;BME280;45933;51.336;12.612;2023-06-19T04:12:21;99532.94;;;21.26;45.09
60061;BME280;45933;51.336;12.612;2023-06-19T04:14:47;99534.78;;;21.24;45.40
60061;BME280;45933;51.336;12.612;2023-06-19T04:17:13;99530.09;;;21.29;45.18
60061;BME280;45933;51.336;12.612;2023-06-19T04:19:39;99532.69;;;21.31;45.27
60061;BME280;45933;51.336;12.612;2023-06-19T04:22:05;99531.56;;;21.35;45.35
60061;BME280;45933;51.336;12.612;2023-06-19T04:24:30;99538.50;;;21.37;45.30
60061;BME280;45933;51.336;12.612;2023-06-19T04:26:55;99538.13;;;21.44;45.30
60061;BME280;45933;51.336;12.612;2023-06-19T04:29:21;99538.72;;;21.49;45.33
60061;BME280;45933;51.336;12.612;2023-06-19T04:31:46;99540.41;;;21.50;45.20
60061;BME280;45933;51.336;12.612;2023-06-19T04:34:17;99542.69;;;21.56;45.10
60061;BME280;45933;51.336;12.612;2023-06-19T04:36:49;99546.19;;;21.56;45.26
60061;BME280;45933;51.336;12.612;2023-06-19T04:39:14;99544.44;;;21.57;45.02
60061;BME280;45933;51.336;12.612;2023-06-19T04:41:42;99545.19;;;21.59;44.92
60061;BME280;45933;51.336;12.612;2023-06-19T04:44:08;99538.06;;;21.59;45.13
60061;BME280;45933;51.336;12.612;2023-06-19T04:46:34;99543.84;;;21.66;44.91
60061;BME280;45933;51.336;12.612;2023-06-19T04:48:59;99545.66;;;21.65;45.12
60061;BME280;45933;51.336;12.612;2023-06-19T04:51:24;99540.94;;;21.71;45.20
60061;BME280;45933;51.336;12.612;2023-06-19T04:53:51;99540.94;;;21.71;45.36
60061;BME280;45933;51.336;12.612;2023-06-19T04:56:17;99539.91;;;21.73;45.41
60061;BME280;45933;51.336;12.612;2023-06-19T04:58:42;99545.13;;;21.75;45.28
60061;BME280;45933;51.336;12.612;2023-06-19T05:01:15;99549.56;;;21.74;45.30
60061;BME280;45933;51.336;12.612;2023-06-19T05:03:42;99544.16;;;21.76;45.30
60061;BME280;45933;51.336;12.612;2023-06-19T05:06:07;99550.78;;;21.83;45.04
60061;BME280;45933;51.336;12.612;2023-06-19T05:08:34;99553.28;;;21.86;45.33
60061;BME280;45933;51.336;12.612;2023-06-19T05:10:59;99555.56;;;21.92;45.39
60061;BME280;45933;51.336;12.612;2023-06-19T05:13:24;99552.53;;;21.98;45.71
60061;BME280;45933;51.336;12.612;2023-06-19T05:15:50;99544.22;;;22.04;45.39
60061;BME280;45933;51.336;12.612;2023-06-19T05:18:18;99548.56;;;22.05;45.32
60061;BME280;45933;51.336;12.612;2023-06-19T05:20:43;99545.63;;;22.10;45.25
60061;BME280;45933;51.336;12.612;2023-06-19T05:23:09;99554.09;;;22.16;45.24
60061;BME280;45933;51.336;12.612;2023-06-19T05:25:34;99555.06;;;22.15;44.96
60061;BME280;45933;51.336;12.612;2023-06-19T05:28:00;99551.53;;;22.15;45.48
60061;BME280;45933;51.336;12.612;2023-06-19T05:30:25;99556.66;;;22.18;45.18
60061;BME280;45933;51.336;12.612;2023-06-19T05:32:50;99543.38;;;22.18;45.17
60061;BME280;45933;51.336;12.612;2023-06-19T05:35:16;99548.50;;;22.21;45.40
60061;BME280;45933;51.336;12.612;2023-06-19T05:37:41;99549.34;;;22.22;45.24
60061;BME280;45933;51.336;12.612;2023-06-19T05:40:09;99558.16;;;22.22;45.32
60061;BME280;45933;51.336;12.612;2023-06-19T05:42:37;99562.53;;;22.23;45.33
60061;BME280;45933;51.336;12.612;2023-06-19T05:45:03;99559.75;;;22.25;45.59
60061;BME280;45933;51.336;12.612;2023-06-19T05:47:29;99557.88;;;22.27;45.18
60061;BME280;45933;51.336;12.612;2023-06-19T05:49:56;99561.19;;;22.30;45.48
60061;BME280;45933;51.336;12.612;2023-06-19T05:52:21;99550.56;;;22.30;45.47
60061;BME280;45933;51.336;12.612;2023-06-19T05:54:47;99553.91;;;22.34;45.23
60061;BME280;45933;51.336;12.612;2023-06-19T05:57:12;99559.09;;;22.35;45.20
60061;BME280;45933;51.336;12.612;2023-06-19T05:59:38;99560.91;;;22.35;45.29
60061;BME280;45933;51.336;12.612;2023-06-19T06:02:03;99573.25;;;22.36;45.11
60061;BME280;45933;51.336;12.612;2023-06-19T06:04:29;99570.59;;;22.36;45.40
60061;BME280;45933;51.336;12.612;2023-06-19T06:06:56;99578.47;;;22.37;45.42
60061;BME280;45933;51.336;12.612;2023-06-19T06:09:21;99575.59;;;22.40;45.30
60061;BME280;45933;51.336;12.612;2023-06-19T06:11:46;99571.16;;;22.41;45.59
60061;BME280;45933;51.336;12.612;2023-06-19T06:14:12;99578.34;;;22.39;45.65
60061;BME280;45933;51.336;12.612;2023-06-19T06:16:37;99586.16;;;22.42;45.55
60061;BME280;45933;51.336;12.612;2023-06-19T06:19:02;99592.19;;;22.44;45.56
60061;BME280;45933;51.336;12.612;2023-06-19T06:21:27;99596.56;;;22.45;45.63
60061;BME280;45933;51.336;12.612;2023-06-19T06:23:53;99583.28;;;22.45;45.34
60061;BME280;45933;51.336;12.612;2023-06-19T06:26:19;99578.75;;;22.47;45.52
60061;BME280;45933;51.336;12.612;2023-06-19T06:28:44;99585.28;;;22.41;45.68
60061;BME280;45933;51.336;12.612;2023-06-19T06:31:10;99593.91;;;22.45;45.77
60061;BME280;45933;51.336;12.612;2023-06-19T06:33:37;99591.06;;;22.48;45.65
60061;BME280;45933;51.336;12.612;2023-06-19T06:36:02;99589.16;;;22.50;45.95
60061;BME280;45933;51.336;12.612;2023-06-19T06:38:28;99594.56;;;22.49;46.01
60061;BME280;45933;51.336;12.612;2023-06-19T06:40:53;99595.31;;;22.51;45.78
60061;BME280;45933;51.336;12.612;2023-06-19T06:43:18;99591.81;;;22.50;45.88
60061;BME280;45933;51.336;12.612;2023-06-19T06:45:44;99606.06;;;22.49;45.76
60061;BME280;45933;51.336;12.612;2023-06-19T06:48:09;99601.47;;;22.51;45.73
60061;BME280;45933;51.336;12.612;2023-06-19T06:50:34;99607.75;;;22.50;45.79
60061;BME280;45933;51.336;12.612;2023-06-19T06:53:00;99609.44;;;22.51;45.78
60061;BME280;45933;51.336;12.612;2023-06-19T06:55:26;99614.59;;;22.54;46.24
60061;BME280;45933;51.336;12.612;2023-06-19T06:57:51;99626.06;;;22.55;47.32
60061;BME280;45933;51.336;12.612;2023-06-19T07:00:16;99626.91;;;22.55;46.12
60061;BME280;45933;51.336;12.612;2023-06-19T07:02:43;99633.00;;;22.57;46.93
60061;BME280;45933;51.336;12.612;2023-06-19T07:05:10;99633.06;;;22.56;46.72
60061;BME280;45933;51.336;12.612;2023-06-19T07:07:36;99625.78;;;22.59;47.14
60061;BME280;45933;51.336;12.612;2023-06-19T07:10:01;99624.94;;;22.59;47.97
60061;BME280;45933;51.336;12.612;2023-06-19T07:12:26;99629.38;;;22.58;47.70
60061;BME280;45933;51.336;12.612;2023-06-19T07:14:55;99631.75;;;22.63;47.42
60061;BME280;45933;51.336;12.612;2023-06-19T07:17:20;99624.06;;;22.58;47.85
60061;BME280;45933;51.336;12.612;2023-06-19T07:19:46;99632.91;;;22.59;47.63
60061;BME280;45933;51.336;12.612;2023-06-19T07:22:11;99632.69;;;22.62;47.91
60061;BME280;45933;51.336;12.612;2023-06-19T07:24:36;99650.25;;;22.64;47.90
60061;BME280;45933;51.336;12.612;2023-06-19T07:27:02;99637.81;;;22.65;47.75
60061;BME280;45933;51.336;12.612;2023-06-19T07:29:27;99635.91;;;22.67;48.97
60061;BME280;45933;51.336;12.612;2023-06-19T07:31:52;99640.31;;;22.68;49.74
60061;BME280;45933;51.336;12.612;2023-06-19T07:34:18;99636.88;;;22.66;49.41
60061;BME280;45933;51.336;12.612;2023-06-19T07:36:43;99630.59;;;22.67;49.30
60061;BME280;45933;51.336;12.612;2023-06-19T07:39:09;99631.56;;;22.66;49.38
60061;BME280;45933;51.336;12.612;2023-06-19T07:41:36;99630.59;;;22.67;49.59
60061;BME280;45933;51.336;12.612;2023-06-19T07:44:02;99625.50;;;22.64;49.71
60061;BME280;45933;51.336;12.612;2023-06-19T07:46:27;99636.03;;;22.65;49.94
60061;BME280;45933;51.336;12.612;2023-06-19T07:48:53;99632.69;;;22.62;50.21
60061;BME280;45933;51.336;12.612;2023-06-19T07:51:18;99628.44;;;22.59;49.45
60061;BME280;45933;51.336;12.612;2023-06-19T07:53:43;99629.50;;;22.57;49.58
60061;BME280;45933;51.336;12.612;2023-06-19T07:56:09;99629.50;;;22.57;49.13
60061;BME280;45933;51.336;12.612;2023-06-19T07:58:35;99626.84;;;22.57;48.80
60061;BME280;45933;51.336;12.612;2023-06-19T08:01:00;99629.50;;;22.57;48.73
60061;BME280;45933;51.336;12.612;2023-06-19T08:03:26;99633.66;;;22.61;48.44
60061;BME280;45933;51.336;12.612;2023-06-19T08:05:51;99629.97;;;22.63;48.62
60061;BME280;45933;51.336;12.612;2023-06-19T08:08:16;99630.69;;;22.65;49.03
60061;BME280;45933;51.336;12.612;2023-06-19T08:10:41;99634.22;;;22.66;49.55
60061;BME280;45933;51.336;12.612;2023-06-19T08:13:07;99628.63;;;22.70;49.30
60061;BME280;45933;51.336;12.612;2023-06-19T08:15:32;99624.81;;;22.75;49.01
60061;BME280;45933;51.336;12.612;2023-06-19T08:17:57;99623.00;;;22.75;48.43
60061;BME280;45933;51.336;12.612;2023-06-19T08:20:23;99624.88;;;22.87;49.30
60061;BME280;45933;51.336;12.612;2023-06-19T08:22:48;99624.53;;;22.93;49.14
60061;BME280;45933;51.336;12.612;2023-06-19T08:25:13;99624.16;;;23.00;48.27
60061;BME280;45933;51.336;12.612;2023-06-19T08:27:39;99620.81;;;23.10;48.26
60061;BME280;45933;51.336;12.612;2023-06-19T08:30:04;99622.09;;;23.17;47.85
60061;BME280;45933;51.336;12.612;2023-06-19T08:32:30;99612.56;;;23.28;47.91
60061;BME280;45933;51.336;12.612;2023-06-19T08:34:55;99606.56;;;23.38;48.04
60061;BME280;45933;51.336;12.612;2023-06-19T08:37:20;99611.28;;;23.47;47.64
60061;BME280;45933;51.336;12.612;2023-06-19T08:39:46;99598.97;;;23.59;46.94
60061;BME280;45933;51.336;12.612;2023-06-19T08:42:11;99596.66;;;23.67;46.67
60061;BME280;45933;51.336;12.612;2023-06-19T08:44:37;99583.28;;;23.82;46.94
60061;BME280;45933;51.336;12.612;2023-06-19T08:47:03;99588.72;;;23.93;45.61
60061;BME280;45933;51.336;12.612;2023-06-19T08:49:34;99589.47;;;24.08;45.66
60061;BME280;45933;51.336;12.612;2023-06-19T08:52:00;99599.38;;;24.18;45.32
60061;BME280;45933;51.336;12.612;2023-06-19T08:54:26;99607.69;;;24.26;44.92
60061;BME280;45933;51.336;12.612;2023-06-19T08:56:51;99612.16;;;24.26;44.20
60061;BME280;45933;51.336;12.612;2023-06-19T08:59:19;99613.16;;;24.38;44.62
60061;BME280;45933;51.336;12.612;2023-06-19T09:01:48;99623.34;;;24.57;44.80
60061;BME280;45933;51.336;12.612;2023-06-19T09:04:18;99612.69;;;24.69;44.65
60061;BME280;45933;51.336;12.612;2023-06-19T09:06:54;99612.09;;;24.90;44.55
60061;BME280;45933;51.336;12.612;2023-06-19T09:09:21;99610.38;;;25.01;45.33
60061;BME280;45933;51.336;12.612;2023-06-19T09:11:57;99607.22;;;25.20;44.74
60061;BME280;45933;51.336;12.612;2023-06-19T09:14:49;99610.75;;;25.45;44.46
60061;BME280;45933;51.336;12.612;2023-06-19T09:17:19;99601.94;;;25.55;44.49
60061;BME280;45933;51.336;12.612;2023-06-19T09:19:52;99608.47;;;25.75;43.71
60061;BME280;45933;51.336;12.612;2023-06-19T09:22:20;99611.78;;;25.90;43.62
60061;BME280;45933;51.336;12.612;2023-06-19T09:24:46;99600.03;;;26.04;41.97
60061;BME280;45933;51.336;12.612;2023-06-19T09:27:17;99593.41;;;26.32;43.13
60061;BME280;45933;51.336;12.612;2023-06-19T09:29:50;99592.34;;;26.57;42.17
60061;BME280;45933;51.336;12.612;2023-06-19T09:32:23;99589.53;;;26.81;40.21
60061;BME280;45933;51.336;12.612;2023-06-19T09:34:51;99592.53;;;27.10;38.94
60061;BME280;45933;51.336;12.612;2023-06-19T09:37:42;99591.78;;;27.51;39.74
60061;BME280;45933;51.336;12.612;2023-06-19T09:40:10;99581.34;;;27.80;38.46
60061;BME280;45933;51.336;12.612;2023-06-19T09:42:40;99584.78;;;28.13;36.09
60061;BME280;45933;51.336;12.612;2023-06-19T09:45:07;99585.00;;;28.31;31.60
60061;BME280;45933;51.336;12.612;2023-06-19T09:47:38;99573.72;;;28.58;32.83
60061;BME280;45933;51.336;12.612;2023-06-19T09:50:05;99572.53;;;28.81;32.82
60061;BME280;45933;51.336;12.612;2023-06-19T09:52:31;99568.63;;;29.05;32.38
60061;BME280;45933;51.336;12.612;2023-06-19T09:54:57;99564.28;;;29.23;32.21
60061;BME280;45933;51.336;12.612;2023-06-19T09:57:23;99564.59;;;29.49;31.67
60061;BME280;45933;51.336;12.612;2023-06-19T09:59:54;99567.25;;;29.78;31.16
60061;BME280;45933;51.336;12.612;2023-06-19T10:02:22;99560.84;;;29.99;31.20
60061;BME280;45933;51.336;12.612;2023-06-19T10:04:53;99562.13;;;30.04;30.64
60061;BME280;45933;51.336;12.612;2023-06-19T10:07:24;99567.22;;;30.17;29.39
60061;BME280;45933;51.336;12.612;2023-06-19T10:10:04;99565.44;;;30.35;30.83
60061;BME280;45933;51.336;12.612;2023-06-19T10:12:45;99558.09;;;30.37;28.30
60061;BME280;45933;51.336;12.612;2023-06-19T10:15:18;99551.91;;;30.55;29.44
60061;BME280;45933;51.336;12.612;2023-06-19T10:17:52;99566.16;;;30.65;29.11
60061;BME280;45933;51.336;12.612;2023-06-19T10:20:22;99554.34;;;30.85;28.98
60061;BME280;45933;51.336;12.612;2023-06-19T10:23:12;99565.41;;;31.00;26.92
60061;BME280;45933;51.336;12.612;2023-06-19T10:25:40;99571.88;;;31.07;26.86
60061;BME280;45933;51.336;12.612;2023-06-19T10:28:36;99560.47;;;31.41;28.53
60061;BME280;45933;51.336;12.612;2023-06-19T10:31:03;99567.16;;;31.37;26.23
60061;BME280;45933;51.336;12.612;2023-06-19T10:33:31;99565.56;;;31.44;26.14
60061;BME280;45933;51.336;12.612;2023-06-19T10:36:00;99566.75;;;31.32;26.14
60061;BME280;45933;51.336;12.612;2023-06-19T10:38:26;99558.59;;;31.41;26.36
60061;BME280;45933;51.336;12.612;2023-06-19T10:40:51;99557.47;;;31.44;26.22
60061;BME280;45933;51.336;12.612;2023-06-19T10:43:21;99556.25;;;31.38;26.25
60061;BME280;45933;51.336;12.612;2023-06-19T10:45:53;99551.06;;;31.45;26.16
60061;BME280;45933;51.336;12.612;2023-06-19T10:48:24;99553.97;;;31.52;26.92
60061;BME280;45933;51.336;12.612;2023-06-19T10:50:50;99539.13;;;31.47;27.05
60061;BME280;45933;51.336;12.612;2023-06-19T10:53:31;99540.81;;;31.66;27.06
60061;BME280;45933;51.336;12.612;2023-06-19T10:55:57;99545.56;;;31.72;27.39
60061;BME280;45933;51.336;12.612;2023-06-19T10:58:24;99540.13;;;31.82;27.24
60061;BME280;45933;51.336;12.612;2023-06-19T11:00:49;99541.63;;;31.85;26.17
60061;BME280;45933;51.336;12.612;2023-06-19T11:03:15;99532.50;;;32.04;26.32
60061;BME280;45933;51.336;12.612;2023-06-19T11:05:43;99532.03;;;32.08;26.40
60061;BME280;45933;51.336;12.612;2023-06-19T11:08:09;99530.72;;;32.20;26.30
60061;BME280;45933;51.336;12.612;2023-06-19T11:10:34;99529.47;;;32.33;27.40
60061;BME280;45933;51.336;12.612;2023-06-19T11:12:59;99527.19;;;32.46;26.88
60061;BME280;45933;51.336;12.612;2023-06-19T11:15:29;99523.81;;;32.52;26.80
60061;BME280;45933;51.336;12.612;2023-06-19T11:17:55;99524.66;;;32.52;25.62
60061;BME280;45933;51.336;12.612;2023-06-19T11:20:20;99533.59;;;32.45;26.03
60061;BME280;45933;51.336;12.612;2023-06-19T11:22:46;99537.50;;;32.59;25.86
60061;BME280;45933;51.336;12.612;2023-06-19T11:25:11;99534.47;;;32.53;25.67
60061;BME280;45933;51.336;12.612;2023-06-19T11:27:38;99533.13;;;32.58;25.49
60061;BME280;45933;51.336;12.612;2023-06-19T11:30:05;99531.78;;;32.53;25.36
60061;BME280;45933;51.336;12.612;2023-06-19T11:32:34;99538.16;;;32.52;25.26
60061;BME280;45933;51.336;12.612;2023-06-19T11:35:10;99539.28;;;32.42;25.56
60061;BME280;45933;51.336;12.612;2023-06-19T11:37:37;99542.53;;;32.45;26.00
60061;BME280;45933;51.336;12.612;2023-06-19T11:40:05;99535.59;;;32.43;25.92
60061;BME280;45933;51.336;12.612;2023-06-19T11:42:49;99529.69;;;32.39;26.77
60061;BME280;45933;51.336;12.612;2023-06-19T11:45:16;99535.47;;;32.26;27.01
60061;BME280;45933;51.336;12.612;2023-06-19T11:47:43;99540.78;;;32.10;26.89
60061;BME280;45933;51.336;12.612;2023-06-19T11:50:09;99543.38;;;31.94;27.36
60061;BME280;45933;51.336;12.612;2023-06-19T11:52:34;99545.50;;;32.08;26.90
60061;BME280;45933;51.336;12.612;2023-06-19T11:55:00;99549.34;;;32.06;27.37
60061;BME280;45933;51.336;12.612;2023-06-19T11:57:26;99550.06;;;32.08;27.10
60061;BME280;45933;51.336;12.612;2023-06-19T11:59:52;99543.53;;;32.18;27.03
60061;BME280;45933;51.336;12.612;2023-06-19T12:02:17;99546.13;;;32.28;27.94
60061;BME280;45933;51.336;12.612;2023-06-19T12:04:42;99550.44;;;32.39;27.39
60061;BME280;45933;51.336;12.612;2023-06-19T12:07:08;99550.50;;;32.29;27.39
60061;BME280;45933;51.336;12.612;2023-06-19T12:09:34;99545.59;;;32.59;27.47
60061;BME280;45933;51.336;12.612;2023-06-19T12:11:59;99537.66;;;32.57;26.68
60061;BME280;45933;51.336;12.612;2023-06-19T12:14:25;99534.97;;;32.57;26.74
60061;BME280;45933;51.336;12.612;2023-06-19T12:16:51;99533.84;;;32.68;26.29
60061;BME280;45933;51.336;12.612;2023-06-19T12:19:17;99531.53;;;32.81;26.26
60061;BME280;45933;51.336;12.612;2023-06-19T12:21:42;99532.78;;;33.03;27.23
60061;BME280;45933;51.336;12.612;2023-06-19T12:24:08;99526.88;;;33.16;26.33
60061;BME280;45933;51.336;12.612;2023-06-19T12:26:36;99531.25;;;33.00;25.48
60061;BME280;45933;51.336;12.612;2023-06-19T12:29:03;99529.44;;;33.17;25.72
60061;BME280;45933;51.336;12.612;2023-06-19T12:31:29;99534.84;;;33.34;25.92
60061;BME280;45933;51.336;12.612;2023-06-19T12:33:54;99538.72;;;33.39;25.78
60061;BME280;45933;51.336;12.612;2023-06-19T12:36:19;99535.38;;;33.45;25.93
60061;BME280;45933;51.336;12.612;2023-06-19T12:38:45;99533.16;;;33.41;25.47
60061;BME280;45933;51.336;12.612;2023-06-19T12:41:12;99541.25;;;33.41;25.70
60061;BME280;45933;51.336;12.612;2023-06-19T12:43:37;99534.50;;;33.37;25.76
60061;BME280;45933;51.336;12.612;2023-06-19T12:46:02;99531.84;;;33.45;25.55
60061;BME280;45933;51.336;12.612;2023-06-19T12:48:28;99532.84;;;33.60;25.25